createdAt,value
2023-03-29T00:01:35.083Z,1.26
2023-03-29T00:04:04.274Z,1.27
2023-03-29T00:06:31.211Z,1.30
2023-03-29T00:08:57.598Z,1.36
2023-03-29T00:11:26.099Z,1.34
2023-03-29T00:13:52.844Z,1.33
2023-03-29T00:16:19.421Z,1.30
2023-03-29T00:18:45.833Z,1.28
2023-03-29T00:21:12.274Z,1.29
2023-03-29T00:23:38.617Z,1.22
2023-03-29T00:26:07.768Z,1.21
2023-03-29T00:28:34.640Z,1.15
2023-03-29T00:31:09.923Z,1.17
2023-03-29T00:33:36.721Z,1.15
2023-03-29T00:36:04.553Z,1.15
2023-03-29T00:38:31.307Z,1.16
2023-03-29T00:40:57.994Z,1.12
2023-03-29T00:43:24.577Z,1.09
2023-03-29T00:45:51.203Z,1.09
2023-03-29T00:48:22.052Z,1.08
2023-03-29T00:50:53.605Z,1.06
2023-03-29T00:53:35.815Z,1.00
2023-03-29T00:56:18.353Z,0.97
2023-03-29T00:58:59.171Z,0.94
2023-03-29T01:01:44.832Z,1.05
2023-03-29T01:04:23.990Z,0.99
2023-03-29T01:06:58.229Z,0.93
2023-03-29T01:09:29.813Z,0.89
2023-03-29T01:12:02.747Z,0.90
2023-03-29T01:14:34.473Z,0.95
2023-03-29T01:17:00.818Z,0.90
2023-03-29T01:19:33.897Z,0.89
2023-03-29T01:22:17.116Z,0.94
2023-03-29T01:25:35.702Z,0.90
2023-03-29T01:28:10.616Z,0.85
2023-03-29T01:30:54.726Z,0.85
2023-03-29T01:33:25.615Z,0.78
2023-03-29T01:36:03.468Z,0.77
2023-03-29T01:38:42.775Z,0.86
2023-03-29T01:41:10.955Z,0.77
2023-03-29T01:43:58.387Z,0.78
2023-03-29T01:46:34.285Z,0.80
2023-03-29T01:49:21.746Z,0.82
2023-03-29T01:51:54.958Z,0.85
2023-03-29T01:54:36.009Z,0.81
2023-03-29T01:57:05.884Z,0.72
2023-03-29T01:59:34.169Z,0.72
2023-03-29T02:02:04.814Z,0.76
2023-03-29T02:04:54.043Z,0.71
2023-03-29T02:07:26.523Z,0.74
2023-03-29T02:09:54.348Z,0.78
2023-03-29T02:12:20.780Z,0.74
2023-03-29T02:14:47.154Z,0.74
2023-03-29T02:17:25.693Z,0.72
2023-03-29T02:19:57.997Z,0.74
2023-03-29T02:22:30.386Z,0.71
2023-03-29T02:24:59.640Z,0.75
2023-03-29T02:27:29.157Z,0.73
2023-03-29T02:29:56.219Z,0.72
2023-03-29T02:32:31.375Z,0.74
2023-03-29T02:35:04.497Z,0.73
2023-03-29T02:37:34.399Z,0.75
2023-03-29T02:40:01.031Z,0.71
2023-03-29T02:42:29.055Z,0.77
2023-03-29T02:44:58.835Z,0.76
2023-03-29T02:47:31.928Z,0.73
2023-03-29T02:49:59.361Z,0.72
2023-03-29T02:52:33.404Z,0.75
2023-03-29T02:55:03.040Z,0.72
2023-03-29T02:57:29.441Z,0.72
2023-03-29T02:59:57.155Z,0.69
2023-03-29T03:02:27.784Z,0.76
2023-03-29T03:04:54.368Z,0.75
2023-03-29T03:07:20.936Z,0.80
2023-03-29T03:09:47.812Z,0.78
2023-03-29T03:12:14.304Z,0.75
2023-03-29T03:14:40.664Z,0.77
2023-03-29T03:17:07.039Z,0.79
2023-03-29T03:19:33.783Z,0.78
2023-03-29T03:22:00.180Z,0.82
2023-03-29T03:24:27.995Z,0.84
2023-03-29T03:26:54.474Z,0.80
2023-03-29T03:29:20.846Z,0.78
2023-03-29T03:31:47.210Z,0.84
2023-03-29T03:34:13.613Z,0.78
2023-03-29T03:36:40.014Z,0.80
2023-03-29T03:39:07.308Z,0.75
2023-03-29T03:41:34.597Z,0.74
2023-03-29T03:44:01.023Z,0.73
2023-03-29T03:46:29.507Z,0.75
2023-03-29T03:48:56.317Z,0.78
2023-03-29T03:51:22.717Z,0.79
2023-03-29T03:53:49.086Z,0.77
2023-03-29T03:56:16.205Z,0.77
2023-03-29T03:58:42.589Z,0.76
2023-03-29T04:01:09.785Z,0.72
2023-03-29T04:03:37.624Z,0.76
2023-03-29T04:06:05.119Z,0.75
2023-03-29T04:08:31.986Z,0.71
2023-03-29T04:10:59.732Z,0.72
2023-03-29T04:13:27.472Z,0.74
2023-03-29T04:15:57.581Z,0.75
2023-03-29T04:18:25.333Z,0.75
2023-03-29T04:20:52.040Z,0.79
2023-03-29T04:23:18.785Z,0.86
2023-03-29T04:25:45.227Z,0.80
2023-03-29T04:28:12.663Z,0.84
2023-03-29T04:30:39.384Z,0.81
2023-03-29T04:33:05.748Z,0.86
2023-03-29T04:35:32.406Z,0.85
2023-03-29T04:37:58.890Z,0.86
2023-03-29T04:40:25.282Z,0.95
2023-03-29T04:42:51.769Z,0.98
2023-03-29T04:45:18.507Z,0.97
2023-03-29T04:47:45.895Z,1.01
2023-03-29T04:50:13.773Z,1.03
2023-03-29T04:52:40.835Z,1.04
2023-03-29T04:55:08.189Z,1.03
2023-03-29T04:57:34.755Z,1.02
2023-03-29T05:00:01.236Z,1.04
2023-03-29T05:02:27.718Z,1.07
2023-03-29T05:04:54.128Z,1.07
2023-03-29T05:07:20.523Z,1.10
2023-03-29T05:09:47.263Z,1.14
2023-03-29T05:12:13.690Z,1.13
2023-03-29T05:14:40.057Z,1.13
2023-03-29T05:17:06.749Z,1.24
2023-03-29T05:19:33.625Z,1.24
2023-03-29T05:22:00.665Z,1.22
2023-03-29T05:24:27.086Z,1.20
2023-03-29T05:26:53.488Z,1.24
2023-03-29T05:29:19.928Z,1.26
2023-03-29T05:31:47.098Z,1.28
2023-03-29T05:34:13.681Z,1.31
2023-03-29T05:36:40.110Z,1.31
2023-03-29T05:39:06.868Z,1.37
2023-03-29T05:41:33.672Z,1.38
2023-03-29T05:44:00.018Z,1.41
2023-03-29T05:46:26.950Z,1.42
2023-03-29T05:48:53.411Z,1.45
2023-03-29T05:51:24.064Z,1.53
2023-03-29T05:53:51.304Z,1.49
2023-03-29T05:56:18.961Z,1.54
2023-03-29T05:58:49.300Z,1.52
2023-03-29T06:01:18.064Z,1.58
2023-03-29T06:03:46.342Z,1.62
2023-03-29T06:06:16.340Z,1.61
2023-03-29T06:08:43.452Z,1.65
2023-03-29T06:11:11.190Z,1.68
2023-03-29T06:13:38.813Z,1.71
2023-03-29T06:16:06.461Z,1.75
2023-03-29T06:18:33.385Z,1.79
2023-03-29T06:21:02.052Z,1.82
2023-03-29T06:23:29.241Z,2.01
2023-03-29T06:25:56.484Z,1.99
2023-03-29T06:28:24.017Z,2.03
2023-03-29T06:30:50.772Z,2.06
2023-03-29T06:33:17.360Z,2.08
2023-03-29T06:35:48.746Z,2.11
2023-03-29T06:38:15.607Z,2.16
2023-03-29T06:40:43.180Z,2.20
2023-03-29T06:43:10.068Z,2.26
2023-03-29T06:45:38.534Z,2.25
2023-03-29T06:48:06.413Z,2.28
2023-03-29T06:50:33.273Z,2.33
2023-03-29T06:53:00.280Z,2.37
2023-03-29T06:55:27.115Z,2.41
2023-03-29T06:57:54.652Z,2.45
2023-03-29T07:00:28.134Z,2.52
2023-03-29T07:02:56.594Z,2.55
2023-03-29T07:05:23.945Z,2.67
2023-03-29T07:07:56.430Z,2.70
2023-03-29T07:10:32.186Z,2.78
2023-03-29T07:13:00.722Z,2.97
2023-03-29T07:15:28.684Z,2.92
2023-03-29T07:17:55.929Z,2.95
2023-03-29T07:20:22.994Z,2.95
2023-03-29T07:22:51.195Z,2.98
2023-03-29T07:25:18.692Z,3.02
2023-03-29T07:27:46.396Z,3.09
2023-03-29T07:30:16.803Z,3.15
2023-03-29T07:32:45.511Z,3.15
2023-03-29T07:35:13.628Z,3.11
2023-03-29T07:37:42.750Z,3.08
2023-03-29T07:40:15.927Z,3.08
2023-03-29T07:42:44.262Z,3.08
2023-03-29T07:45:13.558Z,3.14
2023-03-29T07:47:41.056Z,3.32
2023-03-29T07:50:08.836Z,3.31
2023-03-29T07:52:36.668Z,3.31
2023-03-29T07:55:03.636Z,3.31
2023-03-29T07:57:30.228Z,3.37
2023-03-29T07:59:56.711Z,3.40
2023-03-29T08:02:23.369Z,3.45
2023-03-29T08:04:49.797Z,3.47
2023-03-29T08:07:21.030Z,3.50
2023-03-29T08:09:47.631Z,3.51
2023-03-29T08:12:13.961Z,3.53
2023-03-29T08:14:40.483Z,3.49
2023-03-29T08:17:06.970Z,3.56
2023-03-29T08:19:33.407Z,3.62
2023-03-29T08:22:01.051Z,3.65
2023-03-29T08:24:27.592Z,3.71
2023-03-29T08:26:54.027Z,3.70
2023-03-29T08:29:20.584Z,3.73
2023-03-29T08:31:47.163Z,3.82
2023-03-29T08:34:13.832Z,3.85
2023-03-29T08:36:40.324Z,3.87
2023-03-29T08:39:07.018Z,3.79
2023-03-29T08:42:02.556Z,3.83
2023-03-29T08:44:49.628Z,3.84
2023-03-29T08:47:29.774Z,4.00
2023-03-29T08:49:57.875Z,4.00
2023-03-29T08:52:33.166Z,4.01
2023-03-29T08:55:01.803Z,4.08
2023-03-29T08:57:32.158Z,4.05
2023-03-29T09:00:01.891Z,4.07
2023-03-29T09:02:33.873Z,4.14
2023-03-29T09:05:21.051Z,4.22
2023-03-29T09:07:47.419Z,4.25
2023-03-29T09:10:18.364Z,4.31
2023-03-29T09:13:10.010Z,4.34
2023-03-29T09:15:51.689Z,4.40
2023-03-29T09:18:40.515Z,4.47
2023-03-29T09:21:21.452Z,4.56
2023-03-29T09:24:11.923Z,4.63
2023-03-29T09:27:08.542Z,4.71
2023-03-29T09:29:47.345Z,4.78
2023-03-29T09:32:23.062Z,4.87
2023-03-29T09:35:07.218Z,4.99
2023-03-29T09:37:37.761Z,5.08
2023-03-29T09:40:11.953Z,5.18
2023-03-29T09:42:39.430Z,5.29
2023-03-29T09:45:09.272Z,5.36
2023-03-29T09:47:40.679Z,5.46
2023-03-29T09:50:31.090Z,5.50
2023-03-29T09:52:58.769Z,5.57
2023-03-29T09:55:28.568Z,5.61
2023-03-29T09:58:00.238Z,5.65
2023-03-29T10:00:26.605Z,5.69
2023-03-29T10:02:54.867Z,5.70
2023-03-29T10:05:21.945Z,5.77
2023-03-29T10:07:52.069Z,5.80
2023-03-29T10:10:36.744Z,5.90
2023-03-29T10:13:15.945Z,5.93
2023-03-29T10:15:42.403Z,5.95
2023-03-29T10:18:13.414Z,6.06
2023-03-29T10:20:40.995Z,6.21
2023-03-29T10:23:09.165Z,6.31
2023-03-29T10:25:42.618Z,6.41
2023-03-29T10:28:17.523Z,6.53
2023-03-29T10:30:47.454Z,6.52
2023-03-29T10:33:21.100Z,6.60
2023-03-29T10:35:48.604Z,6.64
2023-03-29T10:38:19.108Z,6.71
2023-03-29T10:40:48.720Z,6.81
2023-03-29T10:43:35.286Z,6.91
2023-03-29T10:46:13.271Z,7.14
2023-03-29T10:48:46.521Z,7.11
2023-03-29T10:51:14.360Z,7.17
2023-03-29T10:53:41.527Z,7.34
2023-03-29T10:56:13.702Z,7.33
2023-03-29T10:59:10.054Z,7.34
2023-03-29T11:02:13.150Z,7.31
2023-03-29T11:04:49.089Z,7.27
2023-03-29T11:07:34.508Z,7.42
2023-03-29T11:10:00.841Z,7.37
2023-03-29T11:12:59.869Z,7.37
2023-03-29T11:15:42.097Z,7.47
2023-03-29T11:18:42.777Z,7.46
2023-03-29T11:21:45.681Z,7.55
2023-03-29T11:24:24.156Z,7.62
2023-03-29T11:27:07.911Z,7.68
2023-03-29T11:30:08.418Z,7.77
2023-03-29T11:32:53.521Z,7.82
2023-03-29T11:36:00.463Z,7.94
2023-03-29T11:38:37.067Z,8.15
2023-03-29T11:41:15.762Z,8.12
2023-03-29T11:43:48.813Z,8.08
2023-03-29T11:47:12.816Z,8.09
2023-03-29T11:50:03.138Z,8.11
2023-03-29T11:52:35.912Z,8.09
2023-03-29T11:55:08.259Z,8.09
2023-03-29T11:57:38.598Z,8.12
2023-03-29T12:00:12.468Z,8.10
2023-03-29T12:02:59.516Z,8.16
2023-03-29T12:05:43.902Z,8.19
2023-03-29T12:08:20.443Z,8.28
2023-03-29T12:11:16.651Z,8.26
2023-03-29T12:13:52.595Z,8.25
2023-03-29T12:16:27.981Z,8.32
2023-03-29T12:18:56.788Z,8.34
2023-03-29T12:21:26.332Z,8.41
2023-03-29T12:23:52.964Z,8.45
2023-03-29T12:26:44.705Z,8.47
2023-03-29T12:29:29.623Z,8.47
2023-03-29T12:32:01.543Z,8.62
2023-03-29T12:35:05.177Z,8.71
2023-03-29T12:37:48.315Z,8.76
2023-03-29T12:40:21.824Z,8.89
2023-03-29T12:42:53.178Z,8.92
2023-03-29T12:45:33.565Z,8.95
2023-03-29T12:48:00.613Z,8.99
2023-03-29T12:50:33.774Z,8.92
2023-03-29T12:53:05.910Z,8.86
2023-03-29T12:55:49.406Z,8.91
2023-03-29T12:58:43.069Z,8.89
2023-03-29T13:01:36.941Z,8.83
2023-03-29T13:04:36.332Z,8.81
2023-03-29T13:07:04.276Z,8.82
2023-03-29T13:09:35.241Z,8.75
2023-03-29T13:12:08.942Z,8.78
2023-03-29T13:14:37.897Z,8.73
2023-03-29T13:17:33.966Z,8.69
2023-03-29T13:20:10.772Z,8.67
2023-03-29T13:22:52.162Z,8.66
2023-03-29T13:25:38.441Z,8.76
2023-03-29T13:28:23.839Z,8.70
2023-03-29T13:31:15.508Z,8.78
2023-03-29T13:33:57.162Z,8.88
2023-03-29T13:36:37.567Z,8.84
2023-03-29T13:39:06.920Z,8.88
2023-03-29T13:41:47.201Z,8.86
2023-03-29T13:44:22.664Z,8.87
2023-03-29T13:47:01.704Z,8.85
2023-03-29T13:49:30.949Z,8.96
2023-03-29T13:52:19.650Z,8.99
2023-03-29T13:54:53.801Z,8.98
2023-03-29T13:57:24.667Z,8.99
2023-03-29T13:59:59.650Z,9.04
2023-03-29T14:02:40.427Z,9.03
2023-03-29T14:05:11.708Z,9.00
2023-03-29T14:07:41.618Z,8.99
2023-03-29T14:10:12.311Z,8.93
2023-03-29T14:12:41.894Z,8.98
2023-03-29T14:15:20.725Z,8.97
2023-03-29T14:17:47.965Z,9.03
2023-03-29T14:20:15.653Z,8.95
2023-03-29T14:22:43.479Z,8.94
2023-03-29T14:25:17.183Z,8.93
2023-03-29T14:27:44.010Z,8.90
2023-03-29T14:30:20.517Z,8.91
2023-03-29T14:32:48.694Z,8.91
2023-03-29T14:35:15.110Z,8.92
2023-03-29T14:37:42.370Z,8.94
2023-03-29T14:40:19.319Z,8.96
2023-03-29T14:42:48.246Z,8.99
2023-03-29T14:45:17.008Z,9.04
2023-03-29T14:47:44.829Z,9.04
2023-03-29T14:50:22.406Z,9.16
2023-03-29T14:52:52.419Z,9.23
2023-03-29T14:55:23.435Z,9.19
2023-03-29T14:57:53.928Z,9.14
2023-03-29T15:00:30.310Z,9.18
2023-03-29T15:03:01.694Z,9.17
2023-03-29T15:05:41.374Z,9.17
2023-03-29T15:08:14.539Z,9.17
2023-03-29T15:10:44.743Z,9.18
2023-03-29T15:13:18.432Z,9.19
2023-03-29T15:15:45.639Z,9.19
2023-03-29T15:18:16.178Z,9.23
2023-03-29T15:20:44.783Z,9.19
2023-03-29T15:23:16.875Z,9.22
2023-03-29T15:25:49.066Z,9.21
2023-03-29T15:28:34.262Z,9.23
2023-03-29T15:31:11.935Z,9.24
2023-03-29T15:33:40.854Z,9.24
2023-03-29T15:36:12.160Z,9.21
2023-03-29T15:38:44.664Z,9.22
2023-03-29T15:41:13.405Z,9.23
2023-03-29T15:43:39.876Z,9.21
2023-03-29T15:46:06.614Z,9.19
2023-03-29T15:48:33.582Z,9.13
2023-03-29T15:51:03.168Z,9.21
2023-03-29T15:53:32.048Z,9.31
2023-03-29T15:56:03.931Z,9.25
2023-03-29T15:58:32.491Z,9.22
2023-03-29T16:01:11.930Z,9.13
2023-03-29T16:03:39.506Z,9.24
2023-03-29T16:06:06.336Z,9.16
2023-03-29T16:08:32.674Z,9.21
2023-03-29T16:10:59.065Z,9.24
2023-03-29T16:13:25.538Z,9.25
2023-03-29T16:15:51.959Z,9.23
2023-03-29T16:18:18.373Z,9.25
2023-03-29T16:20:44.740Z,9.25
2023-03-29T16:23:11.879Z,9.28
2023-03-29T16:25:39.887Z,9.37
2023-03-29T16:28:08.422Z,9.36
2023-03-29T16:30:36.706Z,9.38
2023-03-29T16:33:08.345Z,9.37
2023-03-29T16:35:42.352Z,9.41
2023-03-29T16:38:09.223Z,9.37
2023-03-29T16:40:36.308Z,9.40
2023-03-29T16:43:02.789Z,9.32
2023-03-29T16:45:29.647Z,9.32
2023-03-29T16:47:56.053Z,9.32
2023-03-29T16:50:22.476Z,9.33
2023-03-29T16:52:51.359Z,9.22
2023-03-29T16:55:18.824Z,9.09
2023-03-29T16:57:47.137Z,9.07
2023-03-29T17:00:16.020Z,9.15
2023-03-29T17:02:46.079Z,9.02
2023-03-29T17:05:12.537Z,8.94
2023-03-29T17:07:39.332Z,8.90
2023-03-29T17:10:08.159Z,8.85
2023-03-29T17:12:35.414Z,8.82
2023-03-29T17:15:02.175Z,8.79
2023-03-29T17:17:28.924Z,8.76
2023-03-29T17:19:56.516Z,8.74
2023-03-29T17:22:23.813Z,8.71
2023-03-29T17:24:50.249Z,8.66
2023-03-29T17:27:16.657Z,8.76
2023-03-29T17:29:43.071Z,8.65
2023-03-29T17:32:09.606Z,8.66
2023-03-29T17:34:36.763Z,8.58
2023-03-29T17:37:03.649Z,8.58
2023-03-29T17:39:30.672Z,8.50
2023-03-29T17:41:57.028Z,8.52
2023-03-29T17:44:23.380Z,8.47
2023-03-29T17:46:49.755Z,8.47
2023-03-29T17:49:16.198Z,8.42
2023-03-29T17:51:42.685Z,8.42
2023-03-29T17:54:09.290Z,8.33
2023-03-29T17:56:35.709Z,8.29
2023-03-29T17:59:02.051Z,8.27
2023-03-29T18:01:28.492Z,8.25
2023-03-29T18:03:54.951Z,8.24
2023-03-29T18:06:21.380Z,8.17
2023-03-29T18:08:47.840Z,8.12
2023-03-29T18:11:21.914Z,8.11
2023-03-29T18:13:49.708Z,8.08
2023-03-29T18:16:16.325Z,8.08
2023-03-29T18:18:43.733Z,8.08
2023-03-29T18:21:10.808Z,8.07
2023-03-29T18:23:39.825Z,8.06
2023-03-29T18:26:07.462Z,8.01
2023-03-29T18:28:34.962Z,7.99
2023-03-29T18:31:01.322Z,8.01
2023-03-29T18:33:28.650Z,7.98
2023-03-29T18:35:55.042Z,7.98
2023-03-29T18:38:22.485Z,7.96
2023-03-29T18:40:50.168Z,7.94
2023-03-29T18:43:16.561Z,7.93
2023-03-29T18:45:43.643Z,7.89
2023-03-29T18:48:10.464Z,7.87
2023-03-29T18:50:37.447Z,7.87
2023-03-29T18:53:04.507Z,7.84
2023-03-29T18:55:31.113Z,7.84
2023-03-29T18:57:57.471Z,7.83
2023-03-29T19:00:23.821Z,7.79
2023-03-29T19:02:50.261Z,7.80
2023-03-29T19:05:16.710Z,7.75
2023-03-29T19:07:43.080Z,7.73
2023-03-29T19:10:09.538Z,7.71
2023-03-29T19:12:36.034Z,7.72
2023-03-29T19:15:02.464Z,7.72
2023-03-29T19:17:28.972Z,7.67
2023-03-29T19:19:56.690Z,7.68
2023-03-29T19:22:23.360Z,7.64
2023-03-29T19:24:49.840Z,7.63
2023-03-29T19:27:16.516Z,7.62
2023-03-29T19:29:42.926Z,7.61
2023-03-29T19:32:09.427Z,7.61
2023-03-29T19:34:36.152Z,7.60
2023-03-29T19:37:02.623Z,7.60
2023-03-29T19:39:29.792Z,7.57
2023-03-29T19:41:56.720Z,7.57
2023-03-29T19:44:25.985Z,7.52
2023-03-29T19:46:52.457Z,7.52
2023-03-29T19:49:18.933Z,7.50
2023-03-29T19:51:45.468Z,7.46
2023-03-29T19:54:17.280Z,7.44
2023-03-29T19:56:43.939Z,7.37
2023-03-29T19:59:11.044Z,7.37
2023-03-29T20:01:39.228Z,7.33
2023-03-29T20:04:05.935Z,7.34
2023-03-29T20:06:32.317Z,7.28
2023-03-29T20:08:58.855Z,7.25
2023-03-29T20:11:25.509Z,7.31
2023-03-29T20:13:52.092Z,7.24
2023-03-29T20:16:19.568Z,7.24
2023-03-29T20:18:46.368Z,7.21
2023-03-29T20:21:16.226Z,7.22
2023-03-29T20:23:42.722Z,7.22
2023-03-29T20:26:09.134Z,7.22
2023-03-29T20:28:37.466Z,7.23
2023-03-29T20:31:06.069Z,7.25
2023-03-29T20:33:32.687Z,7.28
2023-03-29T20:35:59.276Z,7.24
2023-03-29T20:38:25.886Z,7.27
2023-03-29T20:40:53.444Z,7.28
2023-03-29T20:43:20.152Z,7.31
2023-03-29T20:45:53.500Z,7.22
2023-03-29T20:48:23.040Z,7.20
2023-03-29T20:50:50.402Z,7.16
2023-03-29T20:53:18.094Z,7.18
2023-03-29T20:55:44.584Z,7.17
2023-03-29T20:58:10.951Z,7.15
2023-03-29T21:00:37.617Z,7.15
2023-03-29T21:03:04.113Z,7.15
2023-03-29T21:05:32.913Z,7.16
2023-03-29T21:07:59.655Z,7.15
2023-03-29T21:10:27.420Z,7.11
2023-03-29T21:12:54.399Z,7.12
2023-03-29T21:15:21.107Z,7.10
2023-03-29T21:17:47.652Z,7.07
2023-03-29T21:20:14.956Z,7.07
2023-03-29T21:22:45.030Z,7.03
2023-03-29T21:25:15.474Z,7.03
2023-03-29T21:27:42.275Z,7.05
2023-03-29T21:30:09.882Z,7.03
2023-03-29T21:32:36.630Z,7.01
2023-03-29T21:35:03.748Z,7.04
2023-03-29T21:37:30.297Z,7.00
2023-03-29T21:39:56.696Z,7.00
2023-03-29T21:42:23.839Z,7.00
2023-03-29T21:44:50.370Z,6.98
2023-03-29T21:47:16.776Z,7.00
2023-03-29T21:49:43.156Z,6.96
2023-03-29T21:52:09.581Z,6.94
2023-03-29T21:54:36.312Z,6.93
2023-03-29T21:57:02.700Z,6.88
2023-03-29T21:59:29.082Z,6.87
2023-03-29T22:01:55.776Z,6.84
2023-03-29T22:04:33.516Z,6.82
2023-03-29T22:07:03.971Z,6.83
2023-03-29T22:09:32.755Z,6.78
2023-03-29T22:11:59.725Z,6.73
2023-03-29T22:14:28.410Z,6.73
2023-03-29T22:16:54.831Z,6.67
2023-03-29T22:19:21.956Z,6.67
2023-03-29T22:21:48.709Z,6.66
2023-03-29T22:24:16.206Z,6.65
2023-03-29T22:26:44.843Z,6.66
2023-03-29T22:29:11.483Z,6.68
2023-03-29T22:31:39.302Z,6.62
2023-03-29T22:34:06.065Z,6.59
2023-03-29T22:36:33.073Z,6.60
2023-03-29T22:38:59.575Z,6.57
2023-03-29T22:41:27.552Z,6.57
2023-03-29T22:43:56.354Z,6.55
2023-03-29T22:46:23.026Z,6.56
2023-03-29T22:48:49.643Z,6.56
2023-03-29T22:51:16.674Z,6.55
2023-03-29T22:53:43.051Z,6.56
2023-03-29T22:56:09.702Z,6.58
2023-03-29T22:58:37.645Z,6.56
2023-03-29T23:01:05.590Z,6.55
2023-03-29T23:03:32.486Z,6.55
2023-03-29T23:06:02.350Z,6.54
2023-03-29T23:08:30.719Z,6.53
2023-03-29T23:10:57.405Z,6.57
2023-03-29T23:13:25.870Z,6.55
2023-03-29T23:15:54.871Z,6.56
2023-03-29T23:18:23.430Z,6.56
2023-03-29T23:20:52.372Z,6.55
2023-03-29T23:23:19.650Z,6.56
2023-03-29T23:25:47.564Z,6.55
2023-03-29T23:28:16.822Z,6.57
2023-03-29T23:30:43.421Z,6.53
2023-03-29T23:33:10.606Z,6.53
2023-03-29T23:35:37.637Z,6.55
2023-03-29T23:38:05.477Z,6.52
2023-03-29T23:40:33.081Z,6.57
2023-03-29T23:42:59.501Z,6.54
2023-03-29T23:45:28.054Z,6.57
2023-03-29T23:47:54.663Z,6.59
2023-03-29T23:50:22.541Z,6.55
2023-03-29T23:52:49.456Z,6.53
2023-03-29T23:55:16.014Z,6.53
2023-03-29T23:57:42.361Z,6.55
